sensor_id;sensor_type;location;lat;lon;timestamp;P1;durP1;ratioP1;P2;durP2;ratioP2
1987;SDS011;12775;46.994;15.498;2023-06-19T00:02:24;10.50;;;9.60;;
1987;SDS011;12775;46.994;15.498;2023-06-19T00:04:51;12.70;;;11.06;;
1987;SDS011;12775;46.994;15.498;2023-06-19T00:07:18;11.46;;;10.56;;
1987;SDS011;12775;46.994;15.498;2023-06-19T00:09:46;13.08;;;11.98;;
1987;SDS011;12775;46.994;15.498;2023-06-19T00:12:13;12.40;;;11.40;;
1987;SDS011;12775;46.994;15.498;2023-06-19T00:14:40;11.32;;;10.36;;
1987;SDS011;12775;46.994;15.498;2023-06-19T00:17:08;10.90;;;9.90;;
1987;SDS011;12775;46.994;15.498;2023-06-19T00:19:35;10.16;;;9.36;;
1987;SDS011;12775;46.994;15.498;2023-06-19T00:22:03;10.30;;;9.40;;
1987;SDS011;12775;46.994;15.498;2023-06-19T00:24:30;9.32;;;8.62;;
1987;SDS011;12775;46.994;15.498;2023-06-19T00:26:56;10.58;;;9.68;;
1987;SDS011;12775;46.994;15.498;2023-06-19T00:29:23;11.64;;;10.68;;
1987;SDS011;12775;46.994;15.498;2023-06-19T00:31:49;18.20;;;11.22;;
1987;SDS011;12775;46.994;15.498;2023-06-19T00:34:16;11.48;;;10.48;;
1987;SDS011;12775;46.994;15.498;2023-06-19T00:36:42;11.50;;;10.28;;
1987;SDS011;12775;46.994;15.498;2023-06-19T00:39:09;11.74;;;10.74;;
1987;SDS011;12775;46.994;15.498;2023-06-19T00:41:36;12.32;;;11.24;;
1987;SDS011;12775;46.994;15.498;2023-06-19T00:44:02;10.14;;;9.32;;
1987;SDS011;12775;46.994;15.498;2023-06-19T00:46:29;11.06;;;10.12;;
1987;SDS011;12775;46.994;15.498;2023-06-19T00:48:56;11.48;;;10.48;;
1987;SDS011;12775;46.994;15.498;2023-06-19T00:51:22;12.00;;;10.88;;
1987;SDS011;12775;46.994;15.498;2023-06-19T00:53:49;12.28;;;11.08;;
1987;SDS011;12775;46.994;15.498;2023-06-19T00:56:15;11.56;;;10.48;;
1987;SDS011;12775;46.994;15.498;2023-06-19T00:58:42;11.10;;;9.86;;
1987;SDS011;12775;46.994;15.498;2023-06-19T01:01:09;10.00;;;9.10;;
1987;SDS011;12775;46.994;15.498;2023-06-19T01:03:36;12.18;;;11.02;;
1987;SDS011;12775;46.994;15.498;2023-06-19T01:06:02;13.08;;;11.88;;
1987;SDS011;12775;46.994;15.498;2023-06-19T01:08:45;11.64;;;10.64;;
1987;SDS011;12775;46.994;15.498;2023-06-19T01:11:15;11.46;;;10.48;;
1987;SDS011;12775;46.994;15.498;2023-06-19T01:13:41;11.00;;;10.06;;
1987;SDS011;12775;46.994;15.498;2023-06-19T01:16:07;11.52;;;10.36;;
1987;SDS011;12775;46.994;15.498;2023-06-19T01:18:34;11.02;;;10.08;;
1987;SDS011;12775;46.994;15.498;2023-06-19T01:21:18;11.24;;;10.34;;
1987;SDS011;12775;46.994;15.498;2023-06-19T01:23:45;11.22;;;10.22;;
1987;SDS011;12775;46.994;15.498;2023-06-19T01:26:11;10.84;;;9.92;;
1987;SDS011;12775;46.994;15.498;2023-06-19T01:28:39;11.70;;;10.54;;
1987;SDS011;12775;46.994;15.498;2023-06-19T01:31:06;9.48;;;8.76;;
1987;SDS011;12775;46.994;15.498;2023-06-19T01:33:32;11.42;;;10.38;;
1987;SDS011;12775;46.994;15.498;2023-06-19T01:35:59;11.48;;;10.48;;
1987;SDS011;12775;46.994;15.498;2023-06-19T01:38:26;11.08;;;10.14;;
1987;SDS011;12775;46.994;15.498;2023-06-19T01:40:53;9.26;;;8.52;;
1987;SDS011;12775;46.994;15.498;2023-06-19T01:43:19;10.92;;;10.02;;
1987;SDS011;12775;46.994;15.498;2023-06-19T01:45:46;12.70;;;11.40;;
1987;SDS011;12775;46.994;15.498;2023-06-19T01:48:13;11.24;;;10.02;;
1987;SDS011;12775;46.994;15.498;2023-06-19T01:50:39;11.54;;;10.42;;
1987;SDS011;12775;46.994;15.498;2023-06-19T01:53:06;9.86;;;9.06;;
1987;SDS011;12775;46.994;15.498;2023-06-19T01:55:32;10.62;;;9.82;;
1987;SDS011;12775;46.994;15.498;2023-06-19T01:57:59;11.44;;;9.68;;
1987;SDS011;12775;46.994;15.498;2023-06-19T02:00:25;11.96;;;10.82;;
1987;SDS011;12775;46.994;15.498;2023-06-19T02:02:52;11.14;;;10.24;;
1987;SDS011;12775;46.994;15.498;2023-06-19T02:05:19;18.86;;;14.08;;
1987;SDS011;12775;46.994;15.498;2023-06-19T02:07:45;12.18;;;11.18;;
1987;SDS011;12775;46.994;15.498;2023-06-19T02:10:12;10.74;;;9.66;;
1987;SDS011;12775;46.994;15.498;2023-06-19T02:12:38;11.46;;;10.22;;
1987;SDS011;12775;46.994;15.498;2023-06-19T02:15:05;10.38;;;9.58;;
1987;SDS011;12775;46.994;15.498;2023-06-19T02:17:33;12.46;;;11.36;;
1987;SDS011;12775;46.994;15.498;2023-06-19T02:20:00;10.86;;;9.96;;
1987;SDS011;12775;46.994;15.498;2023-06-19T02:22:26;10.66;;;9.80;;
1987;SDS011;12775;46.994;15.498;2023-06-19T02:24:53;13.06;;;11.82;;
1987;SDS011;12775;46.994;15.498;2023-06-19T02:27:19;11.92;;;10.86;;
1987;SDS011;12775;46.994;15.498;2023-06-19T02:29:47;12.40;;;11.30;;
1987;SDS011;12775;46.994;15.498;2023-06-19T02:32:14;12.62;;;10.54;;
1987;SDS011;12775;46.994;15.498;2023-06-19T02:34:41;10.80;;;9.82;;
1987;SDS011;12775;46.994;15.498;2023-06-19T02:37:07;11.36;;;10.36;;
1987;SDS011;12775;46.994;15.498;2023-06-19T02:39:34;11.50;;;10.60;;
1987;SDS011;12775;46.994;15.498;2023-06-19T02:42:01;11.30;;;10.22;;
1987;SDS011;12775;46.994;15.498;2023-06-19T02:44:27;10.98;;;10.02;;
1987;SDS011;12775;46.994;15.498;2023-06-19T02:46:54;13.40;;;12.10;;
1987;SDS011;12775;46.994;15.498;2023-06-19T02:49:21;13.46;;;10.96;;
1987;SDS011;12775;46.994;15.498;2023-06-19T02:51:48;12.44;;;11.44;;
1987;SDS011;12775;46.994;15.498;2023-06-19T02:54:14;11.72;;;10.74;;
1987;SDS011;12775;46.994;15.498;2023-06-19T02:56:42;12.44;;;11.42;;
1987;SDS011;12775;46.994;15.498;2023-06-19T02:59:09;11.84;;;10.82;;
1987;SDS011;12775;46.994;15.498;2023-06-19T03:01:36;11.28;;;10.28;;
1987;SDS011;12775;46.994;15.498;2023-06-19T03:04:04;11.72;;;10.62;;
1987;SDS011;12775;46.994;15.498;2023-06-19T03:06:31;11.14;;;10.30;;
1987;SDS011;12775;46.994;15.498;2023-06-19T03:08:58;11.62;;;10.60;;
1987;SDS011;12775;46.994;15.498;2023-06-19T03:11:25;10.56;;;9.76;;
1987;SDS011;12775;46.994;15.498;2023-06-19T03:13:52;12.32;;;11.32;;
1987;SDS011;12775;46.994;15.498;2023-06-19T03:16:18;12.20;;;11.02;;
1987;SDS011;12775;46.994;15.498;2023-06-19T03:18:45;11.98;;;10.92;;
1987;SDS011;12775;46.994;15.498;2023-06-19T03:21:12;10.82;;;9.94;;
1987;SDS011;12775;46.994;15.498;2023-06-19T03:23:39;13.14;;;11.96;;
1987;SDS011;12775;46.994;15.498;2023-06-19T03:26:07;12.70;;;11.40;;
1987;SDS011;12775;46.994;15.498;2023-06-19T03:28:33;14.90;;;13.64;;
1987;SDS011;12775;46.994;15.498;2023-06-19T03:30:59;12.30;;;11.30;;
1987;SDS011;12775;46.994;15.498;2023-06-19T03:33:26;16.20;;;14.58;;
1987;SDS011;12775;46.994;15.498;2023-06-19T03:35:53;12.40;;;11.32;;
1987;SDS011;12775;46.994;15.498;2023-06-19T03:38:19;13.58;;;12.48;;
1987;SDS011;12775;46.994;15.498;2023-06-19T03:40:46;12.54;;;11.54;;
1987;SDS011;12775;46.994;15.498;2023-06-19T03:43:12;12.50;;;11.40;;
1987;SDS011;12775;46.994;15.498;2023-06-19T03:45:39;12.62;;;11.18;;
1987;SDS011;12775;46.994;15.498;2023-06-19T03:48:06;13.26;;;12.12;;
1987;SDS011;12775;46.994;15.498;2023-06-19T03:50:32;13.22;;;11.92;;
1987;SDS011;12775;46.994;15.498;2023-06-19T03:52:59;13.18;;;12.08;;
1987;SDS011;12775;46.994;15.498;2023-06-19T03:55:25;12.74;;;10.48;;
1987;SDS011;12775;46.994;15.498;2023-06-19T03:57:52;12.48;;;11.48;;
1987;SDS011;12775;46.994;15.498;2023-06-19T04:00:18;11.64;;;9.68;;
1987;SDS011;12775;46.994;15.498;2023-06-19T04:02:45;11.90;;;10.80;;
1987;SDS011;12775;46.994;15.498;2023-06-19T04:05:13;11.26;;;10.30;;
1987;SDS011;12775;46.994;15.498;2023-06-19T04:07:38;12.54;;;11.32;;
1987;SDS011;12775;46.994;15.498;2023-06-19T04:10:05;12.38;;;10.22;;
1987;SDS011;12775;46.994;15.498;2023-06-19T04:12:32;10.82;;;9.92;;
1987;SDS011;12775;46.994;15.498;2023-06-19T04:14:59;16.66;;;10.62;;
1987;SDS011;12775;46.994;15.498;2023-06-19T04:17:26;12.38;;;11.38;;
1987;SDS011;12775;46.994;15.498;2023-06-19T04:19:53;11.66;;;10.68;;
1987;SDS011;12775;46.994;15.498;2023-06-19T04:22:19;10.54;;;9.74;;
1987;SDS011;12775;46.994;15.498;2023-06-19T04:24:47;10.92;;;10.12;;
1987;SDS011;12775;46.994;15.498;2023-06-19T04:27:13;12.30;;;11.30;;
1987;SDS011;12775;46.994;15.498;2023-06-19T04:29:40;14.18;;;12.32;;
1987;SDS011;12775;46.994;15.498;2023-06-19T04:32:06;13.00;;;11.64;;
1987;SDS011;12775;46.994;15.498;2023-06-19T04:34:33;12.72;;;11.52;;
1987;SDS011;12775;46.994;15.498;2023-06-19T04:37:01;12.62;;;11.52;;
1987;SDS011;12775;46.994;15.498;2023-06-19T04:39:31;12.92;;;11.56;;
1987;SDS011;12775;46.994;15.498;2023-06-19T04:41:58;11.82;;;10.82;;
1987;SDS011;12775;46.994;15.498;2023-06-19T04:44:25;12.52;;;11.22;;
1987;SDS011;12775;46.994;15.498;2023-06-19T04:46:52;12.28;;;11.28;;
1987;SDS011;12775;46.994;15.498;2023-06-19T04:49:18;12.92;;;11.82;;
1987;SDS011;12775;46.994;15.498;2023-06-19T04:51:45;13.02;;;12.00;;
1987;SDS011;12775;46.994;15.498;2023-06-19T04:54:11;12.10;;;10.98;;
1987;SDS011;12775;46.994;15.498;2023-06-19T04:56:38;12.28;;;11.00;;
1987;SDS011;12775;46.994;15.498;2023-06-19T04:59:05;13.86;;;12.32;;
1987;SDS011;12775;46.994;15.498;2023-06-19T05:01:31;13.90;;;12.64;;
1987;SDS011;12775;46.994;15.498;2023-06-19T05:03:58;13.00;;;11.80;;
1987;SDS011;12775;46.994;15.498;2023-06-19T05:06:24;13.12;;;11.86;;
1987;SDS011;12775;46.994;15.498;2023-06-19T05:08:51;12.72;;;11.62;;
1987;SDS011;12775;46.994;15.498;2023-06-19T05:11:18;13.28;;;11.94;;
1987;SDS011;12775;46.994;15.498;2023-06-19T05:13:45;16.10;;;12.76;;
1987;SDS011;12775;46.994;15.498;2023-06-19T05:16:12;13.50;;;12.18;;
1987;SDS011;12775;46.994;15.498;2023-06-19T05:18:38;13.54;;;12.24;;
1987;SDS011;12775;46.994;15.498;2023-06-19T05:21:05;13.12;;;12.02;;
1987;SDS011;12775;46.994;15.498;2023-06-19T05:23:31;13.76;;;12.54;;
1987;SDS011;12775;46.994;15.498;2023-06-19T05:25:58;13.60;;;11.76;;
1987;SDS011;12775;46.994;15.498;2023-06-19T05:28:25;14.40;;;13.00;;
1987;SDS011;12775;46.994;15.498;2023-06-19T05:30:51;13.44;;;12.06;;
1987;SDS011;12775;46.994;15.498;2023-06-19T05:33:18;13.68;;;11.82;;
1987;SDS011;12775;46.994;15.498;2023-06-19T05:35:44;14.46;;;13.06;;
1987;SDS011;12775;46.994;15.498;2023-06-19T05:38:11;13.80;;;12.56;;
1987;SDS011;12775;46.994;15.498;2023-06-19T05:40:38;13.08;;;11.78;;
1987;SDS011;12775;46.994;15.498;2023-06-19T05:43:04;13.72;;;12.54;;
1987;SDS011;12775;46.994;15.498;2023-06-19T05:45:31;14.76;;;13.14;;
1987;SDS011;12775;46.994;15.498;2023-06-19T05:47:57;14.02;;;11.62;;
1987;SDS011;12775;46.994;15.498;2023-06-19T05:50:24;13.52;;;12.36;;
1987;SDS011;12775;46.994;15.498;2023-06-19T05:52:51;12.54;;;11.44;;
1987;SDS011;12775;46.994;15.498;2023-06-19T05:55:17;13.50;;;12.10;;
1987;SDS011;12775;46.994;15.498;2023-06-19T05:57:44;14.50;;;13.30;;
1987;SDS011;12775;46.994;15.498;2023-06-19T06:00:11;12.78;;;11.70;;
1987;SDS011;12775;46.994;15.498;2023-06-19T06:02:38;15.06;;;13.56;;
1987;SDS011;12775;46.994;15.498;2023-06-19T06:05:04;14.18;;;12.88;;
1987;SDS011;12775;46.994;15.498;2023-06-19T06:07:32;13.54;;;12.24;;
1987;SDS011;12775;46.994;15.498;2023-06-19T06:09:58;16.08;;;12.16;;
1987;SDS011;12775;46.994;15.498;2023-06-19T06:12:25;13.32;;;12.02;;
1987;SDS011;12775;46.994;15.498;2023-06-19T06:14:51;13.94;;;12.76;;
1987;SDS011;12775;46.994;15.498;2023-06-19T06:17:18;14.04;;;12.62;;
1987;SDS011;12775;46.994;15.498;2023-06-19T06:19:45;12.98;;;11.80;;
1987;SDS011;12775;46.994;15.498;2023-06-19T06:22:11;14.56;;;13.44;;
1987;SDS011;12775;46.994;15.498;2023-06-19T06:24:38;14.60;;;13.22;;
1987;SDS011;12775;46.994;15.498;2023-06-19T06:27:05;14.22;;;12.68;;
1987;SDS011;12775;46.994;15.498;2023-06-19T06:29:32;15.30;;;13.98;;
1987;SDS011;12775;46.994;15.498;2023-06-19T06:32:04;14.32;;;13.12;;
1987;SDS011;12775;46.994;15.498;2023-06-19T06:34:31;15.48;;;14.08;;
1987;SDS011;12775;46.994;15.498;2023-06-19T06:36:58;16.06;;;13.92;;
1987;SDS011;12775;46.994;15.498;2023-06-19T06:39:24;14.56;;;13.16;;
1987;SDS011;12775;46.994;15.498;2023-06-19T06:41:51;13.52;;;12.32;;
1987;SDS011;12775;46.994;15.498;2023-06-19T06:44:17;13.08;;;12.06;;
1987;SDS011;12775;46.994;15.498;2023-06-19T06:46:44;13.68;;;12.32;;
1987;SDS011;12775;46.994;15.498;2023-06-19T06:49:11;13.74;;;12.44;;
1987;SDS011;12775;46.994;15.498;2023-06-19T06:51:38;13.58;;;12.40;;
1987;SDS011;12775;46.994;15.498;2023-06-19T06:54:04;12.56;;;11.56;;
1987;SDS011;12775;46.994;15.498;2023-06-19T06:56:31;12.62;;;11.62;;
1987;SDS011;12775;46.994;15.498;2023-06-19T06:58:57;12.62;;;11.62;;
1987;SDS011;12775;46.994;15.498;2023-06-19T07:01:24;13.18;;;12.14;;
1987;SDS011;12775;46.994;15.498;2023-06-19T07:03:51;13.62;;;12.32;;
1987;SDS011;12775;46.994;15.498;2023-06-19T07:06:17;13.20;;;12.22;;
1987;SDS011;12775;46.994;15.498;2023-06-19T07:08:44;13.52;;;12.42;;
1987;SDS011;12775;46.994;15.498;2023-06-19T07:11:11;14.04;;;12.76;;
1987;SDS011;12775;46.994;15.498;2023-06-19T07:13:38;13.80;;;12.48;;
1987;SDS011;12775;46.994;15.498;2023-06-19T07:16:04;14.74;;;13.64;;
1987;SDS011;12775;46.994;15.498;2023-06-19T07:18:31;13.24;;;12.08;;
1987;SDS011;12775;46.994;15.498;2023-06-19T07:20:58;14.44;;;13.24;;
1987;SDS011;12775;46.994;15.498;2023-06-19T07:23:24;13.16;;;11.96;;
1987;SDS011;12775;46.994;15.498;2023-06-19T07:25:51;16.44;;;14.72;;
1987;SDS011;12775;46.994;15.498;2023-06-19T07:28:17;14.10;;;12.26;;
1987;SDS011;12775;46.994;15.498;2023-06-19T07:30:44;13.90;;;12.72;;
1987;SDS011;12775;46.994;15.498;2023-06-19T07:33:11;13.24;;;12.10;;
1987;SDS011;12775;46.994;15.498;2023-06-19T07:35:37;13.94;;;12.58;;
1987;SDS011;12775;46.994;15.498;2023-06-19T07:38:04;12.90;;;11.36;;
1987;SDS011;12775;46.994;15.498;2023-06-19T07:40:30;12.52;;;11.08;;
1987;SDS011;12775;46.994;15.498;2023-06-19T07:42:57;12.48;;;11.08;;
1987;SDS011;12775;46.994;15.498;2023-06-19T07:45:24;15.36;;;11.34;;
1987;SDS011;12775;46.994;15.498;2023-06-19T07:47:54;11.20;;;10.10;;
1987;SDS011;12775;46.994;15.498;2023-06-19T07:50:20;12.00;;;10.76;;
1987;SDS011;12775;46.994;15.498;2023-06-19T07:52:46;13.86;;;12.52;;
1987;SDS011;12775;46.994;15.498;2023-06-19T07:55:13;13.94;;;12.70;;
1987;SDS011;12775;46.994;15.498;2023-06-19T07:57:39;12.22;;;11.18;;
1987;SDS011;12775;46.994;15.498;2023-06-19T08:00:06;13.92;;;12.82;;
1987;SDS011;12775;46.994;15.498;2023-06-19T08:02:34;12.14;;;10.98;;
1987;SDS011;12775;46.994;15.498;2023-06-19T08:05:01;13.72;;;12.72;;
1987;SDS011;12775;46.994;15.498;2023-06-19T08:07:27;12.36;;;11.34;;
1987;SDS011;12775;46.994;15.498;2023-06-19T08:09:54;11.62;;;10.82;;
1987;SDS011;12775;46.994;15.498;2023-06-19T08:12:20;13.14;;;12.24;;
1987;SDS011;12775;46.994;15.498;2023-06-19T08:14:47;12.38;;;11.24;;
1987;SDS011;12775;46.994;15.498;2023-06-19T08:17:14;11.88;;;10.82;;
1987;SDS011;12775;46.994;15.498;2023-06-19T08:19:40;12.64;;;11.64;;
1987;SDS011;12775;46.994;15.498;2023-06-19T08:22:08;12.32;;;11.28;;
1987;SDS011;12775;46.994;15.498;2023-06-19T08:24:35;13.86;;;12.50;;
1987;SDS011;12775;46.994;15.498;2023-06-19T08:27:02;14.06;;;12.86;;
1987;SDS011;12775;46.994;15.498;2023-06-19T08:29:29;13.52;;;12.44;;
1987;SDS011;12775;46.994;15.498;2023-06-19T08:31:55;12.90;;;11.76;;
1987;SDS011;12775;46.994;15.498;2023-06-19T08:34:22;13.20;;;12.20;;
1987;SDS011;12775;46.994;15.498;2023-06-19T08:36:48;12.34;;;11.24;;
1987;SDS011;12775;46.994;15.498;2023-06-19T08:39:15;11.76;;;10.90;;
1987;SDS011;12775;46.994;15.498;2023-06-19T08:41:42;11.34;;;10.52;;
1987;SDS011;12775;46.994;15.498;2023-06-19T08:44:08;11.46;;;10.56;;
1987;SDS011;12775;46.994;15.498;2023-06-19T08:46:35;12.60;;;11.46;;
1987;SDS011;12775;46.994;15.498;2023-06-19T08:49:03;12.16;;;11.26;;
1987;SDS011;12775;46.994;15.498;2023-06-19T08:51:29;12.92;;;11.90;;
1987;SDS011;12775;46.994;15.498;2023-06-19T08:53:59;12.66;;;11.56;;
1987;SDS011;12775;46.994;15.498;2023-06-19T08:56:22;12.46;;;11.26;;
1987;SDS011;12775;46.994;15.498;2023-06-19T08:58:49;11.50;;;10.68;;
1987;SDS011;12775;46.994;15.498;2023-06-19T09:01:17;12.68;;;11.64;;
1987;SDS011;12775;46.994;15.498;2023-06-19T09:03:43;12.08;;;10.92;;
1987;SDS011;12775;46.994;15.498;2023-06-19T09:06:10;12.42;;;11.34;;
1987;SDS011;12775;46.994;15.498;2023-06-19T09:08:37;11.88;;;10.74;;
1987;SDS011;12775;46.994;15.498;2023-06-19T09:11:04;10.24;;;9.42;;
1987;SDS011;12775;46.994;15.498;2023-06-19T09:13:30;10.78;;;9.88;;
1987;SDS011;12775;46.994;15.498;2023-06-19T09:15:57;11.06;;;10.16;;
1987;SDS011;12775;46.994;15.498;2023-06-19T09:18:24;11.92;;;11.02;;
1987;SDS011;12775;46.994;15.498;2023-06-19T09:20:52;12.24;;;11.14;;
1987;SDS011;12775;46.994;15.498;2023-06-19T09:23:18;11.54;;;10.52;;
1987;SDS011;12775;46.994;15.498;2023-06-19T09:25:46;11.10;;;10.30;;
1987;SDS011;12775;46.994;15.498;2023-06-19T09:28:16;10.20;;;9.32;;
1987;SDS011;12775;46.994;15.498;2023-06-19T09:30:54;11.08;;;10.04;;
1987;SDS011;12775;46.994;15.498;2023-06-19T09:33:22;10.66;;;9.78;;
1987;SDS011;12775;46.994;15.498;2023-06-19T09:35:49;10.72;;;9.82;;
1987;SDS011;12775;46.994;15.498;2023-06-19T09:38:14;12.42;;;11.34;;
1987;SDS011;12775;46.994;15.498;2023-06-19T09:40:41;12.26;;;11.06;;
1987;SDS011;12775;46.994;15.498;2023-06-19T09:43:07;12.24;;;10.94;;
1987;SDS011;12775;46.994;15.498;2023-06-19T09:45:34;10.66;;;9.76;;
1987;SDS011;12775;46.994;15.498;2023-06-19T09:48:01;11.22;;;10.42;;
1987;SDS011;12775;46.994;15.498;2023-06-19T09:50:27;11.06;;;10.26;;
1987;SDS011;12775;46.994;15.498;2023-06-19T09:52:55;11.38;;;10.38;;
1987;SDS011;12775;46.994;15.498;2023-06-19T09:55:22;11.48;;;10.68;;
1987;SDS011;12775;46.994;15.498;2023-06-19T09:57:48;11.04;;;10.12;;
1987;SDS011;12775;46.994;15.498;2023-06-19T10:00:14;11.26;;;10.42;;
1987;SDS011;12775;46.994;15.498;2023-06-19T10:02:42;10.36;;;8.92;;
1987;SDS011;12775;46.994;15.498;2023-06-19T10:05:08;9.90;;;9.02;;
1987;SDS011;12775;46.994;15.498;2023-06-19T10:07:35;10.16;;;9.34;;
1987;SDS011;12775;46.994;15.498;2023-06-19T10:10:05;9.68;;;8.86;;
1987;SDS011;12775;46.994;15.498;2023-06-19T10:12:48;10.78;;;9.92;;
1987;SDS011;12775;46.994;15.498;2023-06-19T10:15:16;11.02;;;10.00;;
1987;SDS011;12775;46.994;15.498;2023-06-19T10:17:44;9.80;;;9.14;;
1987;SDS011;12775;46.994;15.498;2023-06-19T10:22:56;10.78;;;9.98;;
1987;SDS011;12775;46.994;15.498;2023-06-19T10:25:22;10.10;;;9.22;;
1987;SDS011;12775;46.994;15.498;2023-06-19T10:27:49;9.18;;;8.44;;
1987;SDS011;12775;46.994;15.498;2023-06-19T10:30:19;10.50;;;9.70;;
1987;SDS011;12775;46.994;15.498;2023-06-19T10:32:46;10.16;;;9.46;;
1987;SDS011;12775;46.994;15.498;2023-06-19T10:35:12;9.30;;;8.50;;
1987;SDS011;12775;46.994;15.498;2023-06-19T10:37:38;9.86;;;9.02;;
1987;SDS011;12775;46.994;15.498;2023-06-19T10:40:05;10.52;;;9.82;;
1987;SDS011;12775;46.994;15.498;2023-06-19T10:42:33;10.36;;;9.32;;
1987;SDS011;12775;46.994;15.498;2023-06-19T10:45:03;10.10;;;9.30;;
1987;SDS011;12775;46.994;15.498;2023-06-19T10:47:29;11.48;;;10.68;;
1987;SDS011;12775;46.994;15.498;2023-06-19T10:49:56;10.42;;;9.56;;
1987;SDS011;12775;46.994;15.498;2023-06-19T10:52:22;11.16;;;10.36;;
1987;SDS011;12775;46.994;15.498;2023-06-19T10:54:53;10.80;;;10.00;;
1987;SDS011;12775;46.994;15.498;2023-06-19T10:57:29;11.32;;;10.10;;
1987;SDS011;12775;46.994;15.498;2023-06-19T10:59:55;12.32;;;11.06;;
1987;SDS011;12775;46.994;15.498;2023-06-19T11:02:22;10.86;;;9.90;;
1987;SDS011;12775;46.994;15.498;2023-06-19T11:04:48;10.46;;;9.58;;
1987;SDS011;12775;46.994;15.498;2023-06-19T11:07:15;10.34;;;9.50;;
1987;SDS011;12775;46.994;15.498;2023-06-19T11:09:41;9.44;;;8.76;;
1987;SDS011;12775;46.994;15.498;2023-06-19T11:12:08;10.84;;;9.84;;
1987;SDS011;12775;46.994;15.498;2023-06-19T11:14:35;10.10;;;9.00;;
1987;SDS011;12775;46.994;15.498;2023-06-19T11:17:01;14.06;;;10.80;;
1987;SDS011;12775;46.994;15.498;2023-06-19T11:19:30;10.82;;;9.92;;
1987;SDS011;12775;46.994;15.498;2023-06-19T11:21:57;11.52;;;10.62;;
1987;SDS011;12775;46.994;15.498;2023-06-19T11:24:23;10.66;;;9.82;;
1987;SDS011;12775;46.994;15.498;2023-06-19T11:26:50;10.18;;;9.38;;
1987;SDS011;12775;46.994;15.498;2023-06-19T11:29:19;10.86;;;9.88;;
1987;SDS011;12775;46.994;15.498;2023-06-19T11:31:46;11.88;;;10.78;;
1987;SDS011;12775;46.994;15.498;2023-06-19T11:34:14;11.08;;;10.28;;
1987;SDS011;12775;46.994;15.498;2023-06-19T11:36:41;11.74;;;10.72;;
1987;SDS011;12775;46.994;15.498;2023-06-19T11:39:10;11.94;;;10.82;;
1987;SDS011;12775;46.994;15.498;2023-06-19T11:41:36;11.02;;;10.26;;
1987;SDS011;12775;46.994;15.498;2023-06-19T11:44:04;11.28;;;10.38;;
1987;SDS011;12775;46.994;15.498;2023-06-19T11:46:30;11.06;;;10.32;;
1987;SDS011;12775;46.994;15.498;2023-06-19T11:49:06;11.34;;;10.44;;
1987;SDS011;12775;46.994;15.498;2023-06-19T11:51:28;11.50;;;10.04;;
1987;SDS011;12775;46.994;15.498;2023-06-19T11:53:55;11.04;;;9.86;;
1987;SDS011;12775;46.994;15.498;2023-06-19T11:56:22;11.44;;;10.64;;
1987;SDS011;12775;46.994;15.498;2023-06-19T11:58:50;10.92;;;10.12;;
1987;SDS011;12775;46.994;15.498;2023-06-19T12:01:17;11.12;;;9.86;;
1987;SDS011;12775;46.994;15.498;2023-06-19T12:03:44;11.54;;;10.66;;
1987;SDS011;12775;46.994;15.498;2023-06-19T12:06:11;11.04;;;10.24;;
1987;SDS011;12775;46.994;15.498;2023-06-19T12:08:38;11.32;;;10.20;;
1987;SDS011;12775;46.994;15.498;2023-06-19T12:11:06;10.58;;;9.70;;
1987;SDS011;12775;46.994;15.498;2023-06-19T12:13:33;11.92;;;11.02;;
1987;SDS011;12775;46.994;15.498;2023-06-19T12:16:00;11.66;;;10.76;;
1987;SDS011;12775;46.994;15.498;2023-06-19T12:18:28;11.90;;;10.80;;
1987;SDS011;12775;46.994;15.498;2023-06-19T12:20:55;11.12;;;10.38;;
1987;SDS011;12775;46.994;15.498;2023-06-19T12:23:23;10.88;;;10.18;;
1987;SDS011;12775;46.994;15.498;2023-06-19T12:25:50;10.88;;;10.02;;
1987;SDS011;12775;46.994;15.498;2023-06-19T12:28:17;12.46;;;11.46;;
1987;SDS011;12775;46.994;15.498;2023-06-19T12:30:44;10.74;;;10.04;;
1987;SDS011;12775;46.994;15.498;2023-06-19T12:33:11;11.28;;;10.48;;
1987;SDS011;12775;46.994;15.498;2023-06-19T12:35:39;11.26;;;10.46;;
1987;SDS011;12775;46.994;15.498;2023-06-19T12:38:06;9.78;;;9.14;;
1987;SDS011;12775;46.994;15.498;2023-06-19T12:40:33;12.00;;;11.20;;
1987;SDS011;12775;46.994;15.498;2023-06-19T12:43:01;12.82;;;11.82;;
1987;SDS011;12775;46.994;15.498;2023-06-19T12:45:28;11.24;;;10.36;;
1987;SDS011;12775;46.994;15.498;2023-06-19T12:47:56;11.10;;;10.30;;
1987;SDS011;12775;46.994;15.498;2023-06-19T12:50:23;13.36;;;12.16;;
1987;SDS011;12775;46.994;15.498;2023-06-19T12:52:50;14.20;;;12.92;;
1987;SDS011;12775;46.994;15.498;2023-06-19T12:55:18;11.48;;;10.56;;
1987;SDS011;12775;46.994;15.498;2023-06-19T12:57:45;12.46;;;11.54;;
1987;SDS011;12775;46.994;15.498;2023-06-19T13:00:13;13.52;;;12.42;;
1987;SDS011;12775;46.994;15.498;2023-06-19T13:02:40;13.02;;;12.12;;
1987;SDS011;12775;46.994;15.498;2023-06-19T13:05:08;11.96;;;11.02;;
1987;SDS011;12775;46.994;15.498;2023-06-19T13:07:35;14.34;;;13.14;;
1987;SDS011;12775;46.994;15.498;2023-06-19T13:10:03;11.60;;;10.74;;
1987;SDS011;12775;46.994;15.498;2023-06-19T13:12:31;11.50;;;10.70;;
1987;SDS011;12775;46.994;15.498;2023-06-19T13:14:58;13.56;;;12.62;;
1987;SDS011;12775;46.994;15.498;2023-06-19T13:17:25;12.30;;;11.40;;
1987;SDS011;12775;46.994;15.498;2023-06-19T13:19:53;12.64;;;11.80;;
1987;SDS011;12775;46.994;15.498;2023-06-19T13:22:20;13.18;;;12.12;;
1987;SDS011;12775;46.994;15.498;2023-06-19T13:24:47;14.44;;;13.24;;
1987;SDS011;12775;46.994;15.498;2023-06-19T13:27:15;13.92;;;12.86;;
1987;SDS011;12775;46.994;15.498;2023-06-19T13:29:42;14.08;;;12.38;;
1987;SDS011;12775;46.994;15.498;2023-06-19T13:32:09;12.86;;;11.66;;
1987;SDS011;12775;46.994;15.498;2023-06-19T13:34:37;13.10;;;11.90;;
1987;SDS011;12775;46.994;15.498;2023-06-19T13:37:04;11.72;;;10.84;;
1987;SDS011;12775;46.994;15.498;2023-06-19T13:39:31;14.58;;;13.38;;
1987;SDS011;12775;46.994;15.498;2023-06-19T13:41:59;11.42;;;10.48;;
1987;SDS011;12775;46.994;15.498;2023-06-19T13:44:27;13.20;;;12.20;;
1987;SDS011;12775;46.994;15.498;2023-06-19T13:46:54;14.20;;;12.88;;
1987;SDS011;12775;46.994;15.498;2023-06-19T13:49:22;16.24;;;13.22;;
1987;SDS011;12775;46.994;15.498;2023-06-19T13:51:48;14.20;;;13.06;;
1987;SDS011;12775;46.994;15.498;2023-06-19T13:54:15;18.04;;;14.50;;
1987;SDS011;12775;46.994;15.498;2023-06-19T13:56:42;13.62;;;12.52;;
1987;SDS011;12775;46.994;15.498;2023-06-19T13:59:09;11.98;;;11.08;;
1987;SDS011;12775;46.994;15.498;2023-06-19T14:01:36;11.80;;;11.00;;
1987;SDS011;12775;46.994;15.498;2023-06-19T14:04:02;12.92;;;11.68;;
1987;SDS011;12775;46.994;15.498;2023-06-19T14:06:29;17.08;;;15.36;;
1987;SDS011;12775;46.994;15.498;2023-06-19T14:08:56;12.46;;;11.52;;
1987;SDS011;12775;46.994;15.498;2023-06-19T14:11:22;17.00;;;15.50;;
1987;SDS011;12775;46.994;15.498;2023-06-19T14:13:49;12.22;;;11.32;;
1987;SDS011;12775;46.994;15.498;2023-06-19T14:16:15;16.62;;;15.08;;
1987;SDS011;12775;46.994;15.498;2023-06-19T14:18:42;13.54;;;12.30;;
1987;SDS011;12775;46.994;15.498;2023-06-19T14:21:08;13.12;;;12.12;;
1987;SDS011;12775;46.994;15.498;2023-06-19T14:23:36;13.94;;;12.56;;
1987;SDS011;12775;46.994;15.498;2023-06-19T14:26:03;14.18;;;13.08;;